createdAt,value
2022-12-28T00:01:29.002Z,31.83
2022-12-28T00:03:58.839Z,28.45
2022-12-28T00:06:26.602Z,94.35
2022-12-28T00:08:55.482Z,40.03
2022-12-28T00:11:27.549Z,32.47
2022-12-28T00:13:59.813Z,23.23
2022-12-28T00:16:35.620Z,51.30
2022-12-28T00:19:10.432Z,30.88
2022-12-28T00:21:38.235Z,37.10
2022-12-28T00:24:06.409Z,66.55
2022-12-28T00:26:35.490Z,59.63
2022-12-28T00:29:05.666Z,74.25
2022-12-28T00:31:34.413Z,89.65
2022-12-28T00:34:03.135Z,107.65
2022-12-28T00:37:11.034Z,59.42
2022-12-28T00:39:22.334Z,77.50
2022-12-28T00:41:49.963Z,97.53
2022-12-28T00:44:17.193Z,37.85
2022-12-28T00:46:44.739Z,39.10
2022-12-28T00:49:11.999Z,219.38
2022-12-28T00:51:39.433Z,109.80
2022-12-28T00:54:06.949Z,204.68
2022-12-28T00:56:34.416Z,332.38
2022-12-28T00:59:01.570Z,189.05
2022-12-28T01:01:29.382Z,254.95
2022-12-28T01:03:58.861Z,211.80
2022-12-28T01:06:29.249Z,147.25
2022-12-28T01:08:58.084Z,253.10
2022-12-28T01:11:29.791Z,208.35
2022-12-28T01:13:59.599Z,193.20
2022-12-28T01:16:33.313Z,194.82
2022-12-28T01:19:02.642Z,138.40
2022-12-28T01:21:32.584Z,58.58
2022-12-28T01:24:02.199Z,46.35
2022-12-28T01:28:59.507Z,64.47
2022-12-28T01:31:27.571Z,184.15
2022-12-28T01:33:55.434Z,63.72
2022-12-28T01:36:25.670Z,68.43
2022-12-28T01:38:56.019Z,57.00
2022-12-28T01:41:25.683Z,126.07
2022-12-28T01:43:52.796Z,113.60
2022-12-28T01:46:32.860Z,89.57
2022-12-28T01:49:07.966Z,120.78
2022-12-28T01:51:54.588Z,86.85
2022-12-28T01:54:26.019Z,141.40
2022-12-28T01:56:53.519Z,90.70
2022-12-28T01:59:25.383Z,79.55
2022-12-28T02:01:53.002Z,74.47
2022-12-28T02:04:20.502Z,56.65
2022-12-28T02:06:48.259Z,66.60
2022-12-28T02:09:39.849Z,54.13
2022-12-28T02:12:10.810Z,66.60
2022-12-28T02:14:39.677Z,47.22
2022-12-28T02:17:10.054Z,44.53
2022-12-28T02:19:45.596Z,50.25
2022-12-28T02:22:18.742Z,60.10
2022-12-28T02:25:17.640Z,64.55
2022-12-28T02:28:08.951Z,54.00
2022-12-28T02:30:49.182Z,41.92
2022-12-28T02:33:27.280Z,34.95
2022-12-28T02:36:18.741Z,36.97
2022-12-28T02:39:03.135Z,36.88
2022-12-28T02:41:33.352Z,34.22
2022-12-28T02:44:01.217Z,59.47
2022-12-28T02:46:48.818Z,29.05
2022-12-28T02:49:40.575Z,36.92
2022-12-28T02:52:07.689Z,33.80
2022-12-28T02:55:31.879Z,36.50
2022-12-28T02:58:20.700Z,29.85
2022-12-28T03:01:03.278Z,25.00
2022-12-28T03:03:39.724Z,34.08
2022-12-28T03:07:05.796Z,33.38
2022-12-28T03:10:03.090Z,32.67
2022-12-28T03:12:45.010Z,31.30
2022-12-28T03:15:29.652Z,34.72
2022-12-28T03:18:27.587Z,38.30
2022-12-28T03:21:15.277Z,34.65
2022-12-28T03:24:03.616Z,28.40
2022-12-28T03:26:52.715Z,29.92
2022-12-28T03:29:41.814Z,28.08
2022-12-28T03:32:10.017Z,33.08
2022-12-28T03:34:38.325Z,34.65
2022-12-28T03:37:25.647Z,39.90
2022-12-28T03:40:07.864Z,31.70
2022-12-28T03:43:05.445Z,35.05
2022-12-28T03:45:45.298Z,39.67
2022-12-28T03:48:17.230Z,31.35
2022-12-28T03:50:48.793Z,40.55
2022-12-28T03:53:21.236Z,29.90
2022-12-28T03:55:51.273Z,32.30
2022-12-28T03:58:21.873Z,27.83
2022-12-28T04:00:50.277Z,27.60
2022-12-28T04:03:19.546Z,27.75
2022-12-28T04:05:46.974Z,25.10
2022-12-28T04:08:14.401Z,25.80
2022-12-28T04:10:42.042Z,24.63
2022-12-28T04:13:09.735Z,28.20
2022-12-28T04:16:05.673Z,33.00
2022-12-28T04:18:35.593Z,25.83
2022-12-28T04:21:03.592Z,33.30
2022-12-28T04:23:31.837Z,24.92
2022-12-28T04:26:19.618Z,21.48
2022-12-28T04:28:49.076Z,26.15
2022-12-28T04:31:23.240Z,27.23
2022-12-28T04:33:59.938Z,23.10
2022-12-28T04:36:29.503Z,21.25
2022-12-28T04:38:59.531Z,22.58
2022-12-28T04:41:27.095Z,26.48
2022-12-28T04:43:55.471Z,22.25
2022-12-28T04:46:24.160Z,29.63
2022-12-28T04:48:52.140Z,21.50
2022-12-28T04:51:24.504Z,24.48
2022-12-28T04:53:52.724Z,23.20
2022-12-28T04:56:22.068Z,26.70
2022-12-28T04:58:53.520Z,26.42
2022-12-28T05:01:21.047Z,22.55
2022-12-28T05:03:55.136Z,27.23
2022-12-28T05:06:24.714Z,22.88
2022-12-28T05:08:51.986Z,20.83
2022-12-28T05:11:21.430Z,21.45
2022-12-28T05:13:49.064Z,26.30
2022-12-28T05:16:19.711Z,19.55
2022-12-28T05:18:47.364Z,20.55
2022-12-28T05:21:18.571Z,29.15
2022-12-28T05:23:46.125Z,22.02
2022-12-28T05:26:16.700Z,23.25
2022-12-28T05:28:44.200Z,21.67
2022-12-28T05:31:16.046Z,18.17
2022-12-28T05:33:43.624Z,18.48
2022-12-28T05:36:16.367Z,26.48
2022-12-28T05:38:43.765Z,23.25
2022-12-28T05:41:20.092Z,30.67
2022-12-28T05:43:48.351Z,25.95
2022-12-28T05:46:21.808Z,25.05
2022-12-28T05:48:49.120Z,17.10
2022-12-28T05:51:18.920Z,18.08
2022-12-28T05:53:46.781Z,13.75
2022-12-28T05:56:15.573Z,19.30
2022-12-28T05:58:43.721Z,15.98
2022-12-28T06:01:19.512Z,19.92
2022-12-28T06:03:48.378Z,16.80
2022-12-28T06:06:17.708Z,22.27
2022-12-28T06:08:46.468Z,16.63
2022-12-28T06:11:16.987Z,17.58
2022-12-28T06:13:44.739Z,23.45
2022-12-28T06:16:20.991Z,22.25
2022-12-28T06:18:48.569Z,16.95
2022-12-28T06:21:23.168Z,21.13
2022-12-28T06:23:51.073Z,24.77
2022-12-28T06:26:21.358Z,25.00
2022-12-28T06:28:49.185Z,30.20
2022-12-28T06:31:19.515Z,15.95
2022-12-28T06:33:47.756Z,22.42
2022-12-28T06:36:20.997Z,16.92
2022-12-28T06:38:49.784Z,23.27
2022-12-28T06:41:19.049Z,19.15
2022-12-28T06:43:47.372Z,21.15
2022-12-28T06:46:16.324Z,20.27
2022-12-28T06:48:43.599Z,17.85
2022-12-28T06:51:19.359Z,25.20
2022-12-28T06:53:47.555Z,20.48
2022-12-28T06:56:20.576Z,17.52
2022-12-28T06:58:49.227Z,22.05
2022-12-28T07:01:23.308Z,19.42
2022-12-28T07:03:52.707Z,24.35
2022-12-28T07:06:22.882Z,18.75
2022-12-28T07:08:50.652Z,27.00
2022-12-28T07:11:21.417Z,21.02
2022-12-28T07:13:49.112Z,23.33
2022-12-28T07:16:19.001Z,18.77
2022-12-28T07:18:47.220Z,22.65
2022-12-28T07:21:15.753Z,19.55
2022-12-28T07:23:43.072Z,20.55
2022-12-28T07:26:22.261Z,18.70
2022-12-28T07:28:52.117Z,17.70
2022-12-28T07:31:22.336Z,19.77
2022-12-28T07:33:50.865Z,29.17
2022-12-28T07:36:20.135Z,26.23
2022-12-28T07:38:47.320Z,25.17
2022-12-28T07:41:20.481Z,16.63
2022-12-28T07:43:48.199Z,18.42
2022-12-28T07:46:17.256Z,28.83
2022-12-28T07:48:45.084Z,18.23
2022-12-28T07:51:36.087Z,18.55
2022-12-28T07:54:04.421Z,16.00
2022-12-28T07:59:01.540Z,17.20
2022-12-28T08:01:31.946Z,23.40
2022-12-28T08:04:01.763Z,17.25
2022-12-28T08:06:30.862Z,18.02
2022-12-28T08:09:01.571Z,15.65
2022-12-28T08:11:31.734Z,15.70
2022-12-28T08:14:00.235Z,17.92
2022-12-28T08:16:31.221Z,16.98
2022-12-28T08:18:58.774Z,16.38
2022-12-28T08:21:29.878Z,15.15
2022-12-28T08:23:57.839Z,22.25
2022-12-28T08:26:32.489Z,14.98
2022-12-28T08:29:03.046Z,18.45
2022-12-28T08:31:33.900Z,23.25
2022-12-28T08:34:03.307Z,14.75
2022-12-28T08:36:31.278Z,15.30
2022-12-28T08:38:59.690Z,16.58
2022-12-28T08:41:28.889Z,18.60
2022-12-28T08:43:56.621Z,20.02
2022-12-28T08:46:27.370Z,19.45
2022-12-28T08:48:56.960Z,18.05
2022-12-28T08:51:42.546Z,23.15
2022-12-28T08:54:12.001Z,16.48
2022-12-28T08:56:41.487Z,14.20
2022-12-28T08:59:08.938Z,24.02
2022-12-28T09:01:44.310Z,19.85
2022-12-28T09:04:20.307Z,14.98
2022-12-28T09:06:48.869Z,20.15
2022-12-28T09:09:17.790Z,15.55
2022-12-28T09:11:46.081Z,16.85
2022-12-28T09:14:22.243Z,14.60
2022-12-28T09:16:51.018Z,17.42
2022-12-28T09:19:18.287Z,23.33
2022-12-28T09:21:48.879Z,15.07
2022-12-28T09:24:16.093Z,19.35
2022-12-28T09:26:43.977Z,20.33
2022-12-28T09:29:13.657Z,20.48
2022-12-28T09:31:41.848Z,20.27
2022-12-28T09:37:00.762Z,19.80
2022-12-28T09:39:28.301Z,22.70
2022-12-28T09:42:15.244Z,18.33
2022-12-28T09:45:01.130Z,18.85
2022-12-28T09:47:41.677Z,18.42
2022-12-28T09:50:21.753Z,19.33
2022-12-28T09:53:17.129Z,19.95
2022-12-28T09:55:54.955Z,20.95
2022-12-28T09:58:22.827Z,24.45
2022-12-28T10:01:02.609Z,17.50
2022-12-28T10:03:40.146Z,14.82
2022-12-28T10:06:13.405Z,15.63
2022-12-28T10:08:53.262Z,22.15
2022-12-28T10:11:28.052Z,19.08
2022-12-28T10:13:58.232Z,23.05
2022-12-28T10:16:28.047Z,14.32
2022-12-28T10:18:56.220Z,20.85
2022-12-28T10:21:32.253Z,21.80
2022-12-28T10:26:51.759Z,20.70
2022-12-28T10:29:23.633Z,20.25
2022-12-28T10:32:01.309Z,34.35
2022-12-28T10:34:34.544Z,20.30
2022-12-28T10:37:15.360Z,20.58
2022-12-28T10:39:55.124Z,24.10
2022-12-28T10:42:51.912Z,18.13
2022-12-28T10:45:35.064Z,20.00
2022-12-28T10:48:09.385Z,18.35
2022-12-28T10:50:40.466Z,24.25
2022-12-28T10:53:31.805Z,18.95
2022-12-28T10:56:17.958Z,17.00
2022-12-28T10:58:49.975Z,17.15
2022-12-28T11:01:27.257Z,13.90
2022-12-28T11:03:57.256Z,13.80
2022-12-28T11:06:28.138Z,17.95
2022-12-28T11:09:06.267Z,16.10
2022-12-28T11:11:34.215Z,16.75
2022-12-28T11:14:22.058Z,15.07
2022-12-28T11:16:49.816Z,19.55
2022-12-28T11:19:17.470Z,20.08
2022-12-28T11:21:45.249Z,14.07
2022-12-28T11:24:15.167Z,13.90
2022-12-28T11:26:51.372Z,16.75
2022-12-28T11:29:19.623Z,16.85
2022-12-28T11:32:03.245Z,29.50
2022-12-28T11:34:31.581Z,21.77
2022-12-28T11:36:59.312Z,20.92
2022-12-28T11:39:26.350Z,21.13
2022-12-28T11:44:41.861Z,22.17
2022-12-28T11:47:18.218Z,23.17
2022-12-28T11:49:47.532Z,14.38
2022-12-28T11:52:17.660Z,19.17
2022-12-28T11:54:52.421Z,16.55
2022-12-28T11:57:40.619Z,11.38
2022-12-28T12:00:23.031Z,17.58
2022-12-28T12:03:01.076Z,20.25
2022-12-28T12:05:38.357Z,20.88
2022-12-28T12:08:14.647Z,13.48
2022-12-28T12:10:48.191Z,12.98
2022-12-28T12:13:27.760Z,11.15
2022-12-28T12:16:16.629Z,12.20
2022-12-28T12:18:48.526Z,11.73
2022-12-28T12:21:32.947Z,10.70
2022-12-28T12:24:15.015Z,13.50
2022-12-28T12:26:53.593Z,13.32
2022-12-28T12:29:37.684Z,16.55
2022-12-28T12:32:18.080Z,13.20
2022-12-28T12:34:49.304Z,16.02
2022-12-28T12:37:58.260Z,23.17
2022-12-28T12:40:28.435Z,34.63
2022-12-28T12:43:10.853Z,26.85
2022-12-28T12:45:56.400Z,17.02
2022-12-28T12:48:50.820Z,16.83
2022-12-28T12:51:39.457Z,17.75
2022-12-28T12:54:24.664Z,16.77
2022-12-28T12:57:13.049Z,16.05
2022-12-28T12:59:49.543Z,11.85
2022-12-28T13:02:16.995Z,15.02
2022-12-28T13:04:46.183Z,14.13
2022-12-28T13:07:20.555Z,16.23
2022-12-28T13:09:49.187Z,14.90
2022-12-28T13:12:18.960Z,14.90
2022-12-28T13:14:48.722Z,14.38
2022-12-28T13:17:21.388Z,14.60
2022-12-28T13:22:31.364Z,16.90
2022-12-28T13:24:59.162Z,15.52
2022-12-28T13:27:33.515Z,12.05
2022-12-28T13:30:02.091Z,14.73
2022-12-28T13:32:37.784Z,9.23
2022-12-28T13:35:24.500Z,9.48
2022-12-28T13:38:02.836Z,11.77
2022-12-28T13:40:32.231Z,11.40
2022-12-28T13:43:25.369Z,10.00
2022-12-28T13:45:59.085Z,10.90
2022-12-28T13:48:27.587Z,12.32
2022-12-28T13:50:55.471Z,10.98
2022-12-28T13:53:27.488Z,11.65
2022-12-28T13:55:58.542Z,14.48
2022-12-28T13:58:28.857Z,10.63
2022-12-28T14:00:58.086Z,10.68
2022-12-28T14:03:25.887Z,11.68
2022-12-28T14:06:00.136Z,8.77
2022-12-28T14:08:29.459Z,10.35
2022-12-28T14:10:56.770Z,15.38
2022-12-28T14:13:24.512Z,17.45
2022-12-28T14:15:52.446Z,11.32
2022-12-28T14:18:20.337Z,12.15
2022-12-28T14:20:52.108Z,16.20
2022-12-28T14:23:25.445Z,16.30
2022-12-28T14:25:54.227Z,12.50
2022-12-28T14:28:35.305Z,15.75
2022-12-28T14:31:04.596Z,15.63
2022-12-28T14:33:36.754Z,17.95
2022-12-28T14:36:07.044Z,15.25
2022-12-28T14:38:40.507Z,15.23
2022-12-28T14:41:16.749Z,11.73
2022-12-28T14:43:55.088Z,13.32
2022-12-28T14:46:34.445Z,16.02
2022-12-28T14:49:30.932Z,27.08
2022-12-28T14:52:10.162Z,14.98
2022-12-28T14:54:52.171Z,14.20
2022-12-28T14:57:28.243Z,20.60
2022-12-28T15:00:18.082Z,16.88
2022-12-28T15:02:45.351Z,16.67
2022-12-28T15:05:39.556Z,25.98
2022-12-28T15:08:08.128Z,40.17
2022-12-28T15:11:09.083Z,43.10
2022-12-28T15:13:36.232Z,60.22
2022-12-28T15:16:04.318Z,36.85
2022-12-28T15:18:33.280Z,63.08
2022-12-28T15:21:05.294Z,28.13
2022-12-28T15:23:32.644Z,27.10
2022-12-28T15:26:09.255Z,37.20
2022-12-28T15:28:36.965Z,32.80
2022-12-28T15:31:09.157Z,28.92
2022-12-28T15:33:37.099Z,27.95
2022-12-28T15:36:09.572Z,42.67
2022-12-28T15:38:40.671Z,32.10
2022-12-28T15:41:28.234Z,29.45
2022-12-28T15:43:55.468Z,21.05
2022-12-28T15:46:22.874Z,20.98
2022-12-28T15:48:50.025Z,19.63
2022-12-28T15:51:17.426Z,11.95
2022-12-28T15:53:44.591Z,23.15
2022-12-28T15:56:29.233Z,12.60
2022-12-28T15:58:58.182Z,21.10
2022-12-28T16:01:27.674Z,14.45
2022-12-28T16:03:57.081Z,18.80
2022-12-28T16:06:26.555Z,14.65
2022-12-28T16:08:54.952Z,14.88
2022-12-28T16:11:23.657Z,16.65
2022-12-28T16:13:52.833Z,29.70
2022-12-28T16:16:21.451Z,23.73
2022-12-28T16:18:49.655Z,24.90
2022-12-28T16:21:17.170Z,27.70
2022-12-28T16:23:45.409Z,14.90
2022-12-28T16:26:13.774Z,24.10
2022-12-28T16:28:41.439Z,17.10
2022-12-28T16:31:20.014Z,15.48
2022-12-28T16:33:47.290Z,20.83
2022-12-28T16:36:16.230Z,16.48
2022-12-28T16:38:43.475Z,13.98
2022-12-28T16:41:12.433Z,13.98
2022-12-28T16:43:39.659Z,19.10
2022-12-28T16:46:09.046Z,17.17
2022-12-28T16:48:37.524Z,21.52
2022-12-28T16:51:06.160Z,23.35
2022-12-28T16:53:33.818Z,20.92
2022-12-28T16:56:02.567Z,18.27
2022-12-28T16:58:30.924Z,24.27
2022-12-28T17:01:04.537Z,27.30
2022-12-28T17:03:33.762Z,29.00
2022-12-28T17:06:01.723Z,36.00
2022-12-28T17:08:29.125Z,44.78
2022-12-28T17:10:56.863Z,28.35
2022-12-28T17:13:24.121Z,30.25
2022-12-28T17:15:51.587Z,30.73
2022-12-28T17:18:18.909Z,21.48
2022-12-28T17:20:46.338Z,49.15
2022-12-28T17:23:13.444Z,23.90
2022-12-28T17:25:40.868Z,27.42
2022-12-28T17:28:08.111Z,22.25
2022-12-28T17:30:35.599Z,30.17
2022-12-28T17:33:02.726Z,25.23
2022-12-28T17:35:30.197Z,36.35
2022-12-28T17:37:57.891Z,56.05
2022-12-28T17:40:25.315Z,378.88
2022-12-28T17:42:52.475Z,609.45
2022-12-28T17:45:19.883Z,435.63
2022-12-28T17:47:47.130Z,183.80
2022-12-28T17:50:14.609Z,355.88
2022-12-28T17:52:41.925Z,127.15
2022-12-28T17:55:10.980Z,140.43
2022-12-28T17:57:38.930Z,132.15
2022-12-28T18:00:06.994Z,245.23
2022-12-28T18:02:39.883Z,38.65
2022-12-28T18:05:07.887Z,29.15
2022-12-28T18:07:35.147Z,22.38
2022-12-28T18:10:02.770Z,28.08
2022-12-28T18:12:30.089Z,20.63
2022-12-28T18:14:57.573Z,16.48
2022-12-28T18:17:24.772Z,27.33
2022-12-28T18:19:53.600Z,21.90
2022-12-28T18:22:22.996Z,30.92
2022-12-28T18:24:50.996Z,23.58
2022-12-28T18:27:18.205Z,20.58
2022-12-28T18:29:45.645Z,21.20
2022-12-28T18:32:12.766Z,30.67
2022-12-28T18:34:40.216Z,28.35
2022-12-28T18:37:07.456Z,19.98
2022-12-28T18:39:35.676Z,30.52
2022-12-28T18:42:03.810Z,40.65
2022-12-28T18:44:31.499Z,35.08
2022-12-28T18:46:58.655Z,22.40
2022-12-28T18:49:29.144Z,52.05
2022-12-28T18:51:56.532Z,31.63
2022-12-28T18:54:24.003Z,35.50
2022-12-28T18:56:52.040Z,41.90
2022-12-28T18:59:19.524Z,24.20
2022-12-28T19:04:34.178Z,28.95
2022-12-28T19:07:01.486Z,27.60
2022-12-28T19:09:28.956Z,20.80
2022-12-28T19:11:56.221Z,26.55
2022-12-28T19:14:23.643Z,25.52
2022-12-28T19:16:50.872Z,34.25
2022-12-28T19:19:18.906Z,28.80
2022-12-28T19:21:46.355Z,26.00
2022-12-28T19:24:17.048Z,24.83
2022-12-28T19:26:45.461Z,33.58
2022-12-28T19:29:14.301Z,28.42
2022-12-28T19:31:41.579Z,20.90
2022-12-28T19:34:09.304Z,24.60
2022-12-28T19:36:36.531Z,22.40
2022-12-28T19:39:04.081Z,26.25
2022-12-28T19:41:31.295Z,22.38
2022-12-28T19:43:58.741Z,18.50
2022-12-28T19:46:31.303Z,21.02
2022-12-28T19:49:01.127Z,27.23
2022-12-28T19:51:31.609Z,25.55
2022-12-28T19:54:00.694Z,17.25
2022-12-28T19:56:28.237Z,19.83
2022-12-28T19:59:03.197Z,20.77
2022-12-28T20:01:35.204Z,20.67
2022-12-28T20:04:08.803Z,19.02
2022-12-28T20:06:39.775Z,20.17
2022-12-28T20:09:07.495Z,21.58
2022-12-28T20:11:34.698Z,21.13
2022-12-28T20:14:03.579Z,35.30
2022-12-28T20:16:33.394Z,18.10
2022-12-28T20:19:06.906Z,22.98
2022-12-28T20:21:35.672Z,47.38
2022-12-28T20:24:03.862Z,87.28
2022-12-28T20:26:31.756Z,104.22
2022-12-28T20:29:00.569Z,29.05
2022-12-28T20:31:28.113Z,24.40
2022-12-28T20:33:55.981Z,21.65
2022-12-28T20:36:25.430Z,16.15
2022-12-28T20:38:55.081Z,17.90
2022-12-28T20:41:50.910Z,18.08
2022-12-28T20:44:28.057Z,16.33
2022-12-28T20:46:57.288Z,17.38
2022-12-28T20:49:26.527Z,18.98
2022-12-28T20:51:54.836Z,15.20
2022-12-28T20:54:23.193Z,21.10
2022-12-28T20:56:55.206Z,17.38
2022-12-28T20:59:25.049Z,16.15
2022-12-28T21:01:52.652Z,19.15
2022-12-28T21:04:20.334Z,17.33
2022-12-28T21:06:47.512Z,21.05
2022-12-28T21:09:15.087Z,16.67
2022-12-28T21:11:42.171Z,21.13
2022-12-28T21:14:09.694Z,24.05
2022-12-28T21:16:36.942Z,19.55
2022-12-28T21:19:04.429Z,18.63
2022-12-28T21:21:31.717Z,20.42
2022-12-28T21:23:59.180Z,18.88
2022-12-28T21:26:26.440Z,22.83
2022-12-28T21:28:53.966Z,17.45
2022-12-28T21:31:21.116Z,22.02
2022-12-28T21:33:48.589Z,14.15
2022-12-28T21:36:19.864Z,15.82
2022-12-28T21:38:48.944Z,17.63
2022-12-28T21:41:41.819Z,14.55
2022-12-28T21:44:14.196Z,21.08
2022-12-28T21:46:43.486Z,18.00
2022-12-28T21:49:11.055Z,20.67
2022-12-28T21:51:39.371Z,16.88
2022-12-28T21:54:14.188Z,15.45
2022-12-28T21:56:42.839Z,13.38
2022-12-28T21:59:11.552Z,18.75
2022-12-28T22:01:59.156Z,13.40
2022-12-28T22:04:46.342Z,17.27
2022-12-28T22:07:16.787Z,16.83
2022-12-28T22:10:04.406Z,17.92
2022-12-28T22:12:35.032Z,17.33
2022-12-28T22:15:26.134Z,18.10
2022-12-28T22:18:02.004Z,18.58
2022-12-28T22:20:29.956Z,17.83
2022-12-28T22:22:59.038Z,20.80
2022-12-28T22:25:28.570Z,17.98
2022-12-28T22:27:56.882Z,17.02
2022-12-28T22:30:24.416Z,18.00
2022-12-28T22:32:51.755Z,18.85
2022-12-28T22:35:19.357Z,15.63
2022-12-28T22:37:46.773Z,20.02
2022-12-28T22:40:14.449Z,14.45
2022-12-28T22:42:42.951Z,23.00
2022-12-28T22:45:17.331Z,15.63
2022-12-28T22:47:45.689Z,22.75
2022-12-28T22:50:15.555Z,20.35
2022-12-28T22:52:43.200Z,17.63
2022-12-28T22:55:10.927Z,13.68
2022-12-28T22:57:38.111Z,16.38
2022-12-28T23:00:08.632Z,16.50
2022-12-28T23:02:36.040Z,16.67
2022-12-28T23:05:04.333Z,18.98
2022-12-28T23:07:31.689Z,15.75
2022-12-28T23:09:59.115Z,14.00
2022-12-28T23:12:26.328Z,13.63
2022-12-28T23:15:12.321Z,15.13
2022-12-28T23:17:39.479Z,13.23
2022-12-28T23:20:25.933Z,17.52
2022-12-28T23:23:11.813Z,24.15
2022-12-28T23:25:59.794Z,30.13
2022-12-28T23:28:27.361Z,18.75
2022-12-28T23:30:56.541Z,29.02
2022-12-28T23:33:24.420Z,16.35
2022-12-28T23:35:51.995Z,13.52
2022-12-28T23:38:19.169Z,18.35
2022-12-28T23:41:06.516Z,15.18
2022-12-28T23:43:33.579Z,20.95
2022-12-28T23:46:04.854Z,25.83
2022-12-28T23:48:33.953Z,18.17
2022-12-28T23:51:08.262Z,32.67
2022-12-28T23:53:36.116Z,29.73
2022-12-28T23:56:03.530Z,19.20
2022-12-28T23:58:30.617Z,29.23
